Time;durP1;ratioP1;P1;durP2;ratioP2;P2;SDS_P1;SDS_P2;PMS_P1;PMS_P2;Temp;Humidity;BMP_temperature;BMP_pressure;BME280_temperature;BME280_humidity;BME280_pressure;Samples;Min_cycle;Max_cycle;Signal;HPM_P1;HPM_P2
2022/06/19 00:01:01;;;;;;;10.40;7.97;;;23.40;99.90;;;;;;5032921;28;20472;-36
2022/06/19 00:03:33;;;;;;;8.57;7.50;;;23.40;99.90;;;;;;5024384;28;20410;-36
2022/06/19 00:06:00;;;;;;;8.30;7.50;;;23.50;99.90;;;;;;5048725;28;20451;-36
2022/06/19 00:08:26;;;;;;;10.83;8.07;;;23.50;99.90;;;;;;5030857;28;20425;-36
2022/06/19 00:10:52;;;;;;;9.00;8.10;;;23.50;99.90;;;;;;5032974;28;20429;-36
2022/06/19 00:13:18;;;;;;;8.33;7.53;;;23.50;99.90;;;;;;5048115;28;20429;-36
2022/06/19 00:15:44;;;;;;;8.80;7.87;;;23.40;99.90;;;;;;5032884;28;20191;-36
2022/06/19 00:18:10;;;;;;;8.57;7.70;;;23.30;99.90;;;;;;5031938;28;20193;-37
2022/06/19 00:20:36;;;;;;;9.53;7.70;;;23.20;99.90;;;;;;5032059;28;20476;-37
2022/06/19 00:23:01;;;;;;;10.17;7.60;;;23.10;99.90;;;;;;5032608;28;20265;-36
2022/06/19 00:25:27;;;;;;;8.20;7.40;;;23.10;99.90;;;;;;5032725;28;20182;-36
2022/06/19 00:27:53;;;;;;;10.20;7.40;;;23.10;99.90;;;;;;5031969;28;20354;-36
2022/06/19 00:30:19;;;;;;;8.80;7.83;;;23.00;99.90;;;;;;5032617;28;20194;-36
2022/06/19 00:32:44;;;;;;;8.23;7.20;;;23.00;99.90;;;;;;5047644;28;20194;-36
2022/06/19 00:35:10;;;;;;;8.50;7.60;;;22.90;99.90;;;;;;5032574;28;20281;-37
2022/06/19 00:37:36;;;;;;;8.10;7.30;;;22.80;99.90;;;;;;5031770;28;20209;-36
2022/06/19 00:40:06;;;;;;;9.23;7.57;;;22.80;99.90;;;;;;5032381;28;20191;-36
2022/06/19 00:42:32;;;;;;;7.77;7.00;;;22.80;99.90;;;;;;5032430;28;20174;-36
2022/06/19 00:44:57;;;;;;;8.30;7.50;;;22.80;99.90;;;;;;5031135;28;20459;-36
2022/06/19 00:47:27;;;;;;;8.77;7.53;;;22.80;99.90;;;;;;5031460;28;20449;-36
2022/06/19 00:50:27;;;;;;;8.70;7.80;;;22.70;99.90;;;;;;5031844;28;20640;-36
2022/06/19 00:52:53;;;;;;;8.33;7.50;;;22.60;99.90;;;;;;5025799;28;20481;-36
2022/06/19 00:55:25;;;;;;;6.90;6.30;;;22.60;99.90;;;;;;5052025;28;20911;-36
2022/06/19 00:58:17;;;;;;;8.43;7.63;;;22.40;99.90;;;;;;5051103;28;20416;-36
2022/06/19 01:00:47;;;;;;;6.97;6.37;;;22.40;99.90;;;;;;5047224;28;20480;-36
2022/06/19 01:03:22;;;;;;;7.97;6.50;;;22.40;99.90;;;;;;5045198;28;20432;-36
2022/06/19 01:05:49;;;;;;;7.90;6.73;;;22.30;99.90;;;;;;5032029;28;20466;-36
2022/06/19 01:08:15;;;;;;;7.47;6.67;;;22.20;99.90;;;;;;5031024;28;20410;-36
2022/06/19 01:10:45;;;;;;;7.37;6.60;;;22.20;99.90;;;;;;5031987;28;20456;-36
2022/06/19 01:13:13;;;;;;;6.90;6.20;;;22.30;99.90;;;;;;5031359;28;20417;-36
2022/06/19 01:15:39;;;;;;;12.00;7.00;;;22.30;99.90;;;;;;5031584;28;21066;-36
2022/06/19 01:18:08;;;;;;;8.63;7.07;;;22.30;99.90;;;;;;5031112;28;20475;-36
2022/06/19 01:20:35;;;;;;;7.20;6.50;;;22.20;99.90;;;;;;5034813;28;20459;-36
2022/06/19 01:23:31;;;;;;;7.33;6.67;;;22.20;99.90;;;;;;5033044;28;20447;-36
2022/06/19 01:25:57;;;;;;;8.07;6.33;;;22.20;99.90;;;;;;5020445;28;20417;-37
2022/06/19 01:31:10;;;;;;;7.13;6.23;;;22.20;99.90;;;;;;5031139;28;20186;-36
2022/06/19 01:33:44;;;;;;;6.40;5.90;;;22.20;99.90;;;;;;5031336;28;20425;-36
2022/06/19 01:36:13;;;;;;;6.10;5.60;;;22.20;99.90;;;;;;5031487;28;20424;-36
2022/06/19 01:38:39;;;;;;;6.50;5.83;;;22.10;99.90;;;;;;5030666;28;20800;-36
2022/06/19 01:41:12;;;;;;;7.23;6.50;;;22.10;99.90;;;;;;5031213;28;20461;-35
2022/06/19 01:43:38;;;;;;;5.40;5.00;;;22.00;99.90;;;;;;5031008;28;20421;-36
2022/06/19 01:46:05;;;;;;;6.73;6.03;;;21.90;99.90;;;;;;5031091;28;20770;-36
2022/06/19 01:48:32;;;;;;;10.17;6.00;;;22.00;99.90;;;;;;5030464;28;20248;-36
2022/06/19 01:51:01;;;;;;;5.87;5.37;;;21.90;99.90;;;;;;5032898;28;20433;-36
2022/06/19 01:53:46;;;;;;;7.07;5.13;;;21.80;99.90;;;;;;5031093;28;20512;-36
2022/06/19 01:56:13;;;;;;;6.67;6.07;;;21.70;99.90;;;;;;5031420;28;20494;-36
2022/06/19 01:58:44;;;;;;;5.87;5.37;;;21.80;99.90;;;;;;5032758;28;21327;-36
2022/06/19 02:01:10;;;;;;;6.43;5.90;;;21.70;99.90;;;;;;5030503;28;20457;-36
2022/06/19 02:03:57;;;;;;;5.37;4.97;;;21.70;99.90;;;;;;5029594;28;20424;-36
2022/06/19 02:06:40;;;;;;;6.20;5.60;;;21.50;99.90;;;;;;5017535;28;20423;-36
2022/06/19 02:09:07;;;;;;;6.73;5.73;;;21.50;99.90;;;;;;5030552;28;20436;-36
2022/06/19 02:11:34;;;;;;;7.73;6.10;;;21.50;99.90;;;;;;5030676;28;20424;-36
2022/06/19 02:14:04;;;;;;;6.67;6.03;;;21.50;99.90;;;;;;5029717;28;20437;-36
2022/06/19 02:16:30;;;;;;;5.83;5.33;;;21.40;99.90;;;;;;5030487;28;20423;-36
2022/06/19 02:18:55;;;;;;;6.10;5.03;;;21.30;99.90;;;;;;5029974;28;20412;-36
2022/06/19 02:21:37;;;;;;;6.57;6.00;;;21.30;99.90;;;;;;5030333;28;20463;-36
2022/06/19 02:24:04;;;;;;;5.43;4.93;;;21.40;99.90;;;;;;5030449;28;20201;-36
2022/06/19 02:26:29;;;;;;;6.53;5.87;;;21.30;99.90;;;;;;5030453;28;20487;-36
2022/06/19 02:28:55;;;;;;;5.83;5.23;;;21.20;99.90;;;;;;5029936;28;20425;-36
2022/06/19 02:31:21;;;;;;;5.67;5.20;;;21.20;99.90;;;;;;5030492;28;20178;-36
2022/06/19 02:33:53;;;;;;;6.13;5.60;;;21.20;99.90;;;;;;5029975;28;20209;-36
2022/06/19 02:36:45;;;;;;;6.03;5.53;;;21.20;99.90;;;;;;5030514;28;20879;-36
2022/06/19 02:39:26;;;;;;;7.53;5.00;;;21.10;99.90;;;;;;5029605;28;20520;-36
2022/06/19 02:42:17;;;;;;;5.97;5.37;;;21.10;99.90;;;;;;5029921;28;20459;-36
2022/06/19 02:44:44;;;;;;;5.80;5.20;;;21.00;99.90;;;;;;5030275;28;20951;-36
2022/06/19 02:47:10;;;;;;;7.03;4.73;;;20.90;99.90;;;;;;5029487;28;20502;-36
2022/06/19 02:49:36;;;;;;;4.93;4.43;;;20.80;99.90;;;;;;5038757;28;20930;-36
2022/06/19 02:52:04;;;;;;;5.93;5.43;;;20.70;99.90;;;;;;5030103;28;20194;-36
2022/06/19 02:54:31;;;;;;;8.33;5.37;;;20.60;99.90;;;;;;5028542;28;21212;-36
2022/06/19 02:56:57;;;;;;;5.23;4.73;;;20.60;99.90;;;;;;5029597;28;20460;-36
2022/06/19 02:59:23;;;;;;;7.13;5.10;;;20.50;99.90;;;;;;5029972;28;20425;-36
2022/06/19 03:01:49;;;;;;;6.20;4.90;;;20.50;99.90;;;;;;5027399;28;20885;-36
2022/06/19 03:04:20;;;;;;;5.40;4.90;;;20.40;99.90;;;;;;5029681;28;20248;-36
2022/06/19 03:06:46;;;;;;;4.97;4.47;;;20.30;99.90;;;;;;5029070;28;20835;-36
2022/06/19 03:09:12;;;;;;;5.00;4.50;;;20.30;99.90;;;;;;5029543;28;20424;-36
2022/06/19 03:11:38;;;;;;;4.47;4.07;;;20.30;99.90;;;;;;5029950;28;20471;-36
2022/06/19 03:14:04;;;;;;;4.50;4.00;;;20.30;99.90;;;;;;5029901;28;20827;-36
2022/06/19 03:16:30;;;;;;;4.33;3.93;;;20.40;99.90;;;;;;5030798;28;20184;-36
2022/06/19 03:18:57;;;;;;;6.67;3.90;;;20.40;99.90;;;;;;5033488;28;20220;-36
2022/06/19 03:21:23;;;;;;;6.40;4.33;;;20.40;99.90;;;;;;5033861;28;20730;-37
2022/06/19 03:23:49;;;;;;;6.00;3.90;;;20.30;99.90;;;;;;5033660;28;20459;-36
2022/06/19 03:26:14;;;;;;;4.57;3.60;;;20.20;99.90;;;;;;5033911;28;20194;-37
2022/06/19 03:28:40;;;;;;;4.03;3.33;;;20.20;99.90;;;;;;5032990;28;20236;-36
2022/06/19 03:31:06;;;;;;;4.30;4.00;;;20.10;99.90;;;;;;5032567;28;20201;-36
2022/06/19 03:33:31;;;;;;;4.17;3.73;;;20.10;99.90;;;;;;5032998;28;20178;-36
2022/06/19 03:35:57;;;;;;;4.93;3.47;;;20.10;99.90;;;;;;5033697;28;20284;-37
2022/06/19 03:38:23;;;;;;;4.80;3.33;;;19.90;99.90;;;;;;5032694;28;20187;-36
2022/06/19 03:40:49;;;;;;;4.07;3.63;;;20.00;99.90;;;;;;5033739;28;20221;-36
2022/06/19 03:43:14;;;;;;;3.60;3.30;;;20.00;99.90;;;;;;5032088;28;20298;-36
2022/06/19 03:45:40;;;;;;;5.07;2.93;;;20.00;99.90;;;;;;5033405;28;20532;-35
2022/06/19 03:48:08;;;;;;;3.47;3.00;;;20.00;99.90;;;;;;5032849;28;20182;-36
2022/06/19 03:50:34;;;;;;;5.67;3.60;;;20.00;99.90;;;;;;5039928;28;20673;-36
2022/06/19 03:52:59;;;;;;;3.00;2.60;;;20.00;99.90;;;;;;5033164;28;21205;-36
2022/06/19 03:55:25;;;;;;;3.27;2.30;;;20.10;99.90;;;;;;5033374;28;20225;-36
2022/06/19 03:57:51;;;;;;;3.50;2.87;;;20.00;99.90;;;;;;5032568;28;20197;-36
2022/06/19 04:00:18;;;;;;;3.70;2.70;;;19.90;99.90;;;;;;5032966;28;20632;-36
2022/06/19 04:02:44;;;;;;;4.47;2.73;;;19.80;99.90;;;;;;5030955;28;20205;-36
2022/06/19 04:05:11;;;;;;;6.97;2.80;;;19.70;99.90;;;;;;5032824;28;20413;-36
2022/06/19 04:07:45;;;;;;;4.60;2.50;;;19.60;99.90;;;;;;5032107;28;20463;-36
2022/06/19 04:10:12;;;;;;;4.90;3.00;;;19.60;99.90;;;;;;5032946;28;20427;-36
2022/06/19 04:12:38;;;;;;;3.33;2.60;;;19.60;99.90;;;;;;5032905;28;20429;-36
2022/06/19 04:15:04;;;;;;;7.83;2.87;;;19.60;99.90;;;;;;5031743;28;20429;-36
2022/06/19 04:17:30;;;;;;;3.83;2.90;;;19.60;99.90;;;;;;5032188;28;20190;-36
2022/06/19 04:19:56;;;;;;;5.33;2.97;;;19.50;99.90;;;;;;5032522;28;20847;-36
2022/06/19 04:22:21;;;;;;;5.10;3.20;;;19.40;99.90;;;;;;5032725;28;20189;-36
2022/06/19 04:24:47;;;;;;;5.60;2.60;;;19.50;99.90;;;;;;5032154;28;20247;-36
2022/06/19 04:27:13;;;;;;;4.50;2.43;;;19.50;99.90;;;;;;5033179;28;20179;-36
2022/06/19 04:29:38;;;;;;;6.43;3.00;;;19.40;99.90;;;;;;5030968;28;20214;-36
2022/06/19 04:32:04;;;;;;;4.90;2.63;;;19.40;99.90;;;;;;5032484;28;20197;-36
2022/06/19 04:34:30;;;;;;;7.00;3.33;;;19.40;99.90;;;;;;5009764;28;20186;-36
2022/06/19 04:36:55;;;;;;;10.10;3.10;;;19.20;99.90;;;;;;5029840;28;20217;-36
2022/06/19 04:39:21;;;;;;;5.23;2.40;;;19.10;99.90;;;;;;5032524;28;20202;-36
2022/06/19 04:41:47;;;;;;;4.67;2.53;;;19.20;99.90;;;;;;5032402;28;20694;-36
2022/06/19 04:44:16;;;;;;;6.07;3.10;;;19.10;99.90;;;;;;5031038;28;20208;-36
2022/06/19 04:46:43;;;;;;;4.43;2.80;;;19.00;99.90;;;;;;5031810;28;20696;-36
2022/06/19 04:49:09;;;;;;;8.80;2.97;;;19.00;99.90;;;;;;5037976;28;20738;-36
2022/06/19 04:51:35;;;;;;;9.03;3.30;;;18.90;99.90;;;;;;5031976;28;20437;-36
2022/06/19 04:54:01;;;;;;;9.10;2.63;;;18.90;99.90;;;;;;5032272;28;20769;-36
2022/06/19 04:56:27;;;;;;;5.20;2.33;;;18.80;99.90;;;;;;5032040;28;20212;-36
2022/06/19 04:58:52;;;;;;;11.20;3.10;;;18.80;99.90;;;;;;5031580;28;20421;-36
2022/06/19 05:01:18;;;;;;;10.00;3.13;;;18.90;99.90;;;;;;5031858;28;20225;-36
2022/06/19 05:03:44;;;;;;;9.73;3.13;;;18.90;99.90;;;;;;5030280;28;20209;-36
2022/06/19 05:06:10;;;;;;;10.73;2.80;;;18.90;99.90;;;;;;5032168;28;21093;-36
2022/06/19 05:08:36;;;;;;;9.90;3.53;;;18.80;99.90;;;;;;5031208;28;20186;-35
2022/06/19 05:11:02;;;;;;;7.77;3.27;;;18.70;99.90;;;;;;5031282;28;20197;-35
2022/06/19 05:13:28;;;;;;;10.50;3.00;;;18.60;99.90;;;;;;5031675;28;20645;-35
2022/06/19 05:16:06;;;;;;;5.30;2.13;;;18.50;99.90;;;;;;5031940;28;20444;-35
2022/06/19 05:18:34;;;;;;;12.30;2.73;;;18.40;99.90;;;;;;5029593;28;20501;-35
2022/06/19 05:21:04;;;;;;;8.80;2.77;;;18.20;99.90;;;;;;5031556;28;20495;-35
2022/06/19 05:23:31;;;;;;;11.77;3.33;;;18.20;99.90;;;;;;5031468;28;20522;-35
2022/06/19 05:25:59;;;;;;;7.70;2.97;;;18.20;99.90;;;;;;5030570;28;20483;-36
2022/06/19 05:28:25;;;;;;;10.97;3.80;;;18.20;99.90;;;;;;5030662;28;20436;-36
2022/06/19 05:30:51;;;;;;;10.33;2.83;;;18.30;99.90;;;;;;5031451;28;20514;-36
2022/06/19 05:33:17;;;;;;;9.63;3.10;;;18.40;99.90;;;;;;5031216;28;20463;-36
2022/06/19 05:35:42;;;;;;;11.23;3.20;;;18.50;99.90;;;;;;5031709;28;20190;-36
2022/06/19 05:38:12;;;;;;;7.07;3.27;;;18.60;99.90;;;;;;5030720;28;20232;-36
2022/06/19 05:40:38;;;;;;;7.43;2.67;;;18.50;99.90;;;;;;5030382;28;20202;-35
2022/06/19 05:43:03;;;;;;;5.50;2.50;;;18.60;99.90;;;;;;5031089;28;20433;-35
2022/06/19 05:45:29;;;;;;;10.93;3.23;;;18.70;99.90;;;;;;5031161;28;20194;-35
2022/06/19 05:47:55;;;;;;;8.93;2.63;;;18.70;99.90;;;;;;5030579;28;20518;-36
2022/06/19 05:50:20;;;;;;;5.57;2.40;;;18.70;99.90;;;;;;5040060;28;20187;-36
2022/06/19 05:52:46;;;;;;;5.60;2.30;;;18.80;99.90;;;;;;5031074;28;20214;-36
2022/06/19 05:55:13;;;;;;;9.03;2.30;;;18.90;99.90;;;;;;5028980;28;20190;-35
2022/06/19 05:57:39;;;;;;;6.70;2.60;;;19.00;99.90;;;;;;5030194;28;20286;-35
2022/06/19 06:00:08;;;;;;;13.30;2.57;;;19.00;99.90;;;;;;5029347;28;20536;-36
2022/06/19 06:02:35;;;;;;;6.23;2.43;;;18.90;99.90;;;;;;5029518;28;20281;-36
2022/06/19 06:05:02;;;;;;;6.20;2.57;;;19.10;99.90;;;;;;5030695;28;20425;-35
2022/06/19 06:07:27;;;;;;;11.37;3.30;;;19.20;99.90;;;;;;5030059;28;20908;-36
2022/06/19 06:09:53;;;;;;;9.47;2.80;;;19.30;99.90;;;;;;5030833;28;20460;-36
2022/06/19 06:12:19;;;;;;;11.00;2.77;;;19.40;99.90;;;;;;5030525;28;20198;-35
2022/06/19 06:14:45;;;;;;;7.07;2.53;;;19.50;99.90;;;;;;5030756;28;20182;-36
2022/06/19 06:17:10;;;;;;;15.93;3.10;;;19.70;99.90;;;;;;5029368;28;20190;-36
2022/06/19 06:19:36;;;;;;;6.00;2.27;;;19.70;99.90;;;;;;5030512;28;20228;-36
2022/06/19 06:22:03;;;;;;;6.27;2.70;;;19.70;99.90;;;;;;5029996;28;20583;-35
2022/06/19 06:24:30;;;;;;;7.67;2.70;;;19.80;99.90;;;;;;5030371;28;20282;-36
2022/06/19 06:26:56;;;;;;;7.87;3.03;;;19.90;99.90;;;;;;5029076;28;20790;-35
2022/06/19 06:29:21;;;;;;;6.00;2.30;;;20.00;99.90;;;;;;5030576;28;20436;-36
2022/06/19 06:31:47;;;;;;;6.60;2.23;;;19.80;99.90;;;;;;5030328;28;20993;-36
2022/06/19 06:34:13;;;;;;;9.80;3.07;;;19.80;99.90;;;;;;5030268;28;20681;-35
2022/06/19 06:36:39;;;;;;;7.50;2.60;;;19.70;99.90;;;;;;5027000;28;20186;-36
2022/06/19 06:39:04;;;;;;;11.33;3.13;;;19.70;99.90;;;;;;5032764;28;20202;-35
2022/06/19 06:41:30;;;;;;;9.33;2.50;;;19.70;99.90;;;;;;5029834;28;20591;-36
2022/06/19 06:43:56;;;;;;;7.07;2.80;;;19.70;99.90;;;;;;5030225;28;20194;-36
2022/06/19 06:46:24;;;;;;;11.80;3.57;;;19.80;99.90;;;;;;5030092;28;20862;-36
2022/06/19 06:48:53;;;;;;;6.97;2.73;;;19.90;99.90;;;;;;5029515;28;20262;-36
2022/06/19 06:51:22;;;;;;;12.80;3.27;;;19.90;99.90;;;;;;5031123;28;21133;-36
2022/06/19 06:53:49;;;;;;;8.70;3.10;;;19.90;99.90;;;;;;5031885;28;20946;-35
2022/06/19 06:56:15;;;;;;;9.37;3.13;;;20.00;99.90;;;;;;5023943;28;20417;-36
2022/06/19 06:58:40;;;;;;;10.13;3.13;;;20.10;99.90;;;;;;5022839;28;20457;-36
2022/06/19 07:01:15;;;;;;;7.77;2.53;;;20.30;99.90;;;;;;5027455;28;21045;-35
2022/06/19 07:03:43;;;;;;;6.60;3.00;;;20.40;99.90;;;;;;5029525;28;20731;-35
2022/06/19 07:06:10;;;;;;;8.60;3.10;;;20.40;99.90;;;;;;5031887;28;21084;-36
2022/06/19 07:08:37;;;;;;;7.17;3.33;;;20.60;99.90;;;;;;5033068;28;20500;-35
2022/06/19 07:11:03;;;;;;;10.83;3.57;;;20.60;99.90;;;;;;5031727;28;20436;-36
2022/06/19 07:13:29;;;;;;;11.00;3.20;;;20.60;99.90;;;;;;5018878;28;20520;-36
2022/06/19 07:15:55;;;;;;;9.97;3.10;;;20.70;99.90;;;;;;5023970;28;20457;-36
2022/06/19 07:18:20;;;;;;;7.97;2.87;;;20.80;99.90;;;;;;5025858;28;20950;-36
2022/06/19 07:20:46;;;;;;;7.80;3.30;;;20.90;99.90;;;;;;5033111;28;20237;-36
2022/06/19 07:23:12;;;;;;;8.20;3.07;;;20.90;99.90;;;;;;5034147;28;20241;-36
2022/06/19 07:25:38;;;;;;;6.67;3.50;;;21.10;99.90;;;;;;5033935;28;21191;-36
2022/06/19 07:28:04;;;;;;;7.00;3.37;;;21.20;99.90;;;;;;5024887;28;20230;-36
2022/06/19 07:30:30;;;;;;;7.80;3.37;;;21.20;99.90;;;;;;5023408;28;20479;-36
2022/06/19 07:32:56;;;;;;;7.80;3.37;;;21.20;99.90;;;;;;5030887;28;20460;-36
2022/06/19 07:35:23;;;;;;;8.03;3.30;;;21.20;99.90;;;;;;5032686;28;20551;-36
2022/06/19 07:37:51;;;;;;;8.87;3.20;;;21.30;99.90;;;;;;5033333;28;20453;-36
2022/06/19 07:40:19;;;;;;;13.50;3.53;;;21.30;99.90;;;;;;5021584;28;20499;-36
2022/06/19 07:42:45;;;;;;;6.43;3.10;;;21.50;99.90;;;;;;5026884;28;21102;-36
2022/06/19 07:45:12;;;;;;;8.07;3.67;;;21.60;99.90;;;;;;5031678;28;20854;-36
2022/06/19 07:50:23;;;;;;;8.73;3.23;;;21.70;99.90;;;;;;5032260;28;20488;-36
2022/06/19 07:52:50;;;;;;;10.70;2.97;;;21.80;99.20;;;;;;5032775;28;20457;-36
2022/06/19 07:55:30;;;;;;;8.40;2.87;;;21.80;99.20;;;;;;5028618;28;20456;-36
2022/06/19 07:58:01;;;;;;;6.67;2.73;;;21.80;99.30;;;;;;5025481;28;20543;-35
2022/06/19 08:00:32;;;;;;;7.23;2.70;;;21.70;99.20;;;;;;5029178;28;20567;-37
2022/06/19 08:02:58;;;;;;;6.20;2.60;;;21.80;99.70;;;;;;5023879;28;20460;-36
2022/06/19 08:05:30;;;;;;;8.23;2.90;;;21.80;99.80;;;;;;5033159;28;20823;-36
2022/06/19 08:08:00;;;;;;;7.80;2.53;;;21.70;99.60;;;;;;5031256;28;20449;-36
2022/06/19 08:10:29;;;;;;;8.80;3.57;;;21.70;99.80;;;;;;5037160;28;20505;-35
2022/06/19 08:12:55;;;;;;;8.53;3.40;;;21.80;99.90;;;;;;5051130;28;20501;-36
2022/06/19 08:15:21;;;;;;;7.30;3.60;;;21.80;99.90;;;;;;5037694;28;20452;-36
2022/06/19 08:17:48;;;;;;;15.10;4.60;;;21.80;99.50;;;;;;5034473;28;20461;-36
2022/06/19 08:20:16;;;;;;;9.10;3.10;;;21.80;99.50;;;;;;5033510;28;20941;-36
2022/06/19 08:22:42;;;;;;;10.17;2.90;;;21.80;99.50;;;;;;5031685;28;20942;-36
2022/06/19 08:25:10;;;;;;;7.20;2.90;;;21.80;99.40;;;;;;5039426;28;20487;-36
2022/06/19 08:27:37;;;;;;;7.50;3.20;;;21.90;99.30;;;;;;5031871;28;20479;-36
2022/06/19 08:30:14;;;;;;;8.40;3.10;;;21.90;99.40;;;;;;5037522;28;20460;-36
2022/06/19 08:32:39;;;;;;;5.60;3.00;;;22.00;98.90;;;;;;5038631;28;20463;-36
2022/06/19 08:35:06;;;;;;;5.83;2.90;;;22.10;99.30;;;;;;5049901;28;20448;-36
2022/06/19 08:37:33;;;;;;;6.83;3.33;;;22.10;99.50;;;;;;5043472;28;20221;-36
2022/06/19 08:39:59;;;;;;;9.20;4.23;;;22.10;98.90;;;;;;5036676;28;20479;-36
2022/06/19 08:43:13;;;;;;;7.10;3.33;;;22.20;99.20;;;;;;5042447;28;21087;-37
2022/06/19 08:45:50;;;;;;;14.10;4.07;;;22.40;99.30;;;;;;4984744;28;20215;-35
2022/06/19 08:48:45;;;;;;;10.70;4.30;;;22.60;98.90;;;;;;5020584;28;20472;-35
2022/06/19 08:51:25;;;;;;;7.40;3.07;;;22.70;98.80;;;;;;4993595;28;20561;-35
2022/06/19 08:54:12;;;;;;;10.90;3.60;;;22.70;98.40;;;;;;5036380;28;21258;-36
2022/06/19 08:56:57;;;;;;;9.13;3.37;;;22.70;98.60;;;;;;5033028;28;20492;-35
2022/06/19 08:59:40;;;;;;;7.80;4.13;;;22.70;98.60;;;;;;5030251;28;20452;-36
2022/06/19 09:02:12;;;;;;;11.20;4.00;;;22.70;98.90;;;;;;5029606;28;20852;-36
2022/06/19 09:08:19;;;;;;;13.00;3.70;;;22.80;98.60;;;;;;5047642;28;20459;-36
2022/06/19 09:10:51;;;;;;;10.43;3.20;;;23.00;98.40;;;;;;5037621;28;20472;-35
2022/06/19 09:13:45;;;;;;;11.13;4.67;;;23.00;98.30;;;;;;5046923;28;20463;-35
2022/06/19 09:16:48;;;;;;;8.10;3.60;;;23.00;98.10;;;;;;5036454;28;20472;-36
2022/06/19 09:19:16;;;;;;;13.40;4.63;;;22.90;98.70;;;;;;5049308;28;20900;-36
2022/06/19 09:21:58;;;;;;;9.73;3.60;;;22.70;98.40;;;;;;5042502;28;20538;-36
2022/06/19 09:24:30;;;;;;;10.80;3.90;;;22.80;98.80;;;;;;5046298;28;20449;-35
2022/06/19 09:27:01;;;;;;;11.87;3.73;;;23.00;99.10;;;;;;5049492;28;20459;-36
2022/06/19 09:29:35;;;;;;;8.10;3.90;;;23.00;98.80;;;;;;5038956;28;20517;-36
2022/06/19 09:32:13;;;;;;;7.20;3.73;;;23.00;98.20;;;;;;5023714;28;20922;-36
2022/06/19 09:34:47;;;;;;;10.00;3.60;;;23.00;98.60;;;;;;5029024;28;20502;-36
2022/06/19 09:37:35;;;;;;;11.03;4.30;;;22.90;98.90;;;;;;5028485;28;20826;-36
2022/06/19 09:40:10;;;;;;;10.70;3.97;;;22.80;99.00;;;;;;5030280;28;20804;-35
2022/06/19 09:42:42;;;;;;;7.63;3.97;;;22.70;98.70;;;;;;5042129;28;20509;-36
2022/06/19 09:45:10;;;;;;;8.07;3.60;;;22.60;98.30;;;;;;5034421;28;20452;-35
2022/06/19 09:47:50;;;;;;;11.17;4.37;;;22.50;98.70;;;;;;5025496;28;20453;-35
2022/06/19 09:50:19;;;;;;;6.90;2.77;;;22.40;99.40;;;;;;5027813;28;21147;-36
2022/06/19 09:52:51;;;;;;;6.37;3.77;;;22.50;99.60;;;;;;5030674;28;20434;-35
2022/06/19 09:55:30;;;;;;;8.80;3.23;;;22.50;99.20;;;;;;5030264;28;20464;-35
2022/06/19 09:58:17;;;;;;;7.70;3.57;;;22.60;98.40;;;;;;5038297;28;20836;-35
2022/06/19 10:00:47;;;;;;;8.33;3.93;;;22.60;98.30;;;;;;5035437;28;20487;-36
2022/06/19 10:03:26;;;;;;;9.40;3.60;;;22.40;98.10;;;;;;5026195;28;20445;-35
2022/06/19 10:06:07;;;;;;;7.30;3.50;;;22.30;99.30;;;;;;5023686;28;20489;-36
2022/06/19 10:08:43;;;;;;;7.80;3.50;;;22.30;98.80;;;;;;5027023;28;20461;-35
2022/06/19 10:11:17;;;;;;;9.13;3.60;;;22.30;98.30;;;;;;5025617;28;20480;-36
2022/06/19 10:13:46;;;;;;;6.23;3.03;;;22.20;98.90;;;;;;5024458;28;20449;-36
2022/06/19 10:16:39;;;;;;;9.67;3.47;;;22.20;98.80;;;;;;5024511;28;20507;-36
2022/06/19 10:19:32;;;;;;;7.83;3.10;;;22.20;99.00;;;;;;5022580;28;20536;-35
2022/06/19 10:22:29;;;;;;;11.17;3.30;;;22.20;99.40;;;;;;5026493;28;20539;-35
2022/06/19 10:25:16;;;;;;;6.80;3.60;;;22.20;99.80;;;;;;5027984;28;20457;-35
2022/06/19 10:27:52;;;;;;;10.60;3.97;;;22.30;99.30;;;;;;5035662;28;20540;-36
2022/06/19 10:30:22;;;;;;;11.23;3.60;;;22.20;99.60;;;;;;5030460;28;20467;-35
2022/06/19 10:33:18;;;;;;;12.80;4.00;;;22.20;99.60;;;;;;5037512;28;20444;-35
2022/06/19 10:35:59;;;;;;;7.70;3.50;;;22.00;99.30;;;;;;5023353;28;20511;-36
2022/06/19 10:38:42;;;;;;;6.17;3.20;;;21.90;99.70;;;;;;5023418;28;20461;-35
2022/06/19 10:44:37;;;;;;;7.10;3.57;;;21.80;99.90;;;;;;5041461;28;20437;-36
2022/06/19 10:47:06;;;;;;;12.53;3.60;;;21.70;99.90;;;;;;5040782;28;21001;-35
2022/06/19 10:49:50;;;;;;;9.93;3.73;;;21.70;99.90;;;;;;5041464;28;20476;-36
2022/06/19 10:52:25;;;;;;;8.47;3.20;;;21.70;99.90;;;;;;5027900;28;20477;-36
2022/06/19 10:54:54;;;;;;;11.33;4.17;;;21.80;99.90;;;;;;5023873;28;20445;-36
2022/06/19 10:57:45;;;;;;;7.13;3.33;;;21.90;99.90;;;;;;5028885;28;20511;-36
2022/06/19 11:00:12;;;;;;;10.97;3.93;;;21.90;99.90;;;;;;5029129;28;20445;-36
2022/06/19 11:05:50;;;;;;;12.47;3.57;;;22.40;99.90;;;;;;5019832;28;20421;-35
2022/06/19 11:08:19;;;;;;;8.20;3.47;;;22.60;99.90;;;;;;5025754;28;20436;-35
2022/06/19 11:10:54;;;;;;;6.27;3.80;;;22.70;99.90;;;;;;5025614;28;20441;-36
2022/06/19 11:13:20;;;;;;;10.33;3.87;;;22.80;99.90;;;;;;5029305;28;20424;-36
2022/06/19 11:16:04;;;;;;;6.63;3.13;;;22.80;99.90;;;;;;5029549;28;20429;-36
2022/06/19 11:18:29;;;;;;;10.77;3.00;;;23.00;99.90;;;;;;5028941;28;20424;-36
2022/06/19 11:21:01;;;;;;;9.73;3.90;;;23.30;99.90;;;;;;5029390;28;20525;-36
2022/06/19 11:23:32;;;;;;;11.43;3.67;;;23.50;99.90;;;;;;5029578;28;20190;-36
2022/06/19 11:26:06;;;;;;;8.93;3.30;;;23.60;99.90;;;;;;5023603;28;20586;-36
2022/06/19 11:29:03;;;;;;;9.50;3.60;;;23.70;99.90;;;;;;5028764;28;20416;-36
2022/06/19 11:31:32;;;;;;;26.80;4.40;;;23.60;99.70;;;;;;5017906;28;20420;-36
2022/06/19 11:37:23;;;;;;;9.10;3.53;;;23.70;99.90;;;;;;5028619;28;20455;-36
2022/06/19 11:39:53;;;;;;;9.37;4.47;;;23.70;99.70;;;;;;5033343;28;20417;-36
2022/06/19 11:42:27;;;;;;;8.67;3.93;;;23.60;99.60;;;;;;5033157;28;20468;-36
2022/06/19 11:45:04;;;;;;;7.87;4.40;;;23.60;99.50;;;;;;5033330;28;20780;-36
2022/06/19 11:47:37;;;;;;;9.97;4.80;;;23.60;99.90;;;;;;5032628;28;20419;-36
2022/06/19 11:50:12;;;;;;;10.30;4.10;;;23.70;99.30;;;;;;5035217;28;21082;-35
2022/06/19 11:52:48;;;;;;;7.63;3.37;;;23.60;99.90;;;;;;5030623;28;20441;-35
2022/06/19 11:55:21;;;;;;;7.77;3.97;;;23.50;99.60;;;;;;5029159;28;20463;-36
2022/06/19 11:57:51;;;;;;;8.97;4.50;;;23.50;99.90;;;;;;5038794;28;20523;-35
2022/06/19 12:00:36;;;;;;;8.37;4.13;;;23.50;99.90;;;;;;5028654;28;20451;-36
2022/06/19 12:03:14;;;;;;;10.30;4.30;;;23.50;99.90;;;;;;5029895;28;20456;-35
2022/06/19 12:05:50;;;;;;;8.87;3.83;;;23.60;99.90;;;;;;5032132;28;20428;-36
2022/06/19 12:08:23;;;;;;;6.83;3.43;;;23.60;99.90;;;;;;5027573;28;20434;-36
2022/06/19 12:10:59;;;;;;;6.17;3.63;;;23.60;99.90;;;;;;5029378;28;20433;-36
2022/06/19 12:13:32;;;;;;;10.10;3.37;;;23.70;99.90;;;;;;5032510;28;20498;-35
2022/06/19 12:16:21;;;;;;;9.63;4.20;;;23.70;99.90;;;;;;5032996;28;21107;-37
2022/06/19 12:18:48;;;;;;;11.27;4.50;;;23.70;99.90;;;;;;5032001;28;20428;-36
2022/06/19 12:21:22;;;;;;;10.90;3.97;;;23.80;99.90;;;;;;5032027;28;20547;-36
2022/06/19 12:24:15;;;;;;;9.30;3.57;;;23.80;99.90;;;;;;5032621;28;20421;-36
2022/06/19 12:26:48;;;;;;;10.13;4.53;;;24.00;99.90;;;;;;5033083;28;20434;-36
2022/06/19 12:29:28;;;;;;;7.07;4.00;;;24.10;99.90;;;;;;5028660;28;20439;-36
2022/06/19 12:32:05;;;;;;;8.07;4.23;;;24.20;99.90;;;;;;5032687;28;20424;-36
2022/06/19 12:34:40;;;;;;;12.30;4.30;;;24.30;99.90;;;;;;5031253;28;20490;-36
2022/06/19 12:37:28;;;;;;;8.90;3.57;;;24.30;99.90;;;;;;5030228;28;20482;-36
2022/06/19 12:39:55;;;;;;;7.70;4.37;;;24.40;99.90;;;;;;5031014;28;20460;-36
2022/06/19 12:42:33;;;;;;;8.00;3.70;;;24.50;99.90;;;;;;5029747;28;20472;-36
2022/06/19 12:45:13;;;;;;;10.80;4.97;;;24.60;99.70;;;;;;5030470;28;20794;-36
2022/06/19 12:47:51;;;;;;;7.30;3.80;;;24.40;99.80;;;;;;5031410;28;20483;-36
2022/06/19 12:50:38;;;;;;;9.73;4.20;;;24.40;99.30;;;;;;5044413;28;20758;-36
2022/06/19 12:53:16;;;;;;;7.63;5.03;;;24.30;99.90;;;;;;5029507;28;20439;-36
2022/06/19 12:56:16;;;;;;;8.70;3.90;;;24.40;99.90;;;;;;5025175;28;20405;-36
2022/06/19 12:59:11;;;;;;;10.40;4.53;;;24.50;99.90;;;;;;5023422;28;20795;-36
2022/06/19 13:02:06;;;;;;;6.90;3.63;;;24.70;99.90;;;;;;5012754;28;20468;-36
2022/06/19 13:04:39;;;;;;;6.97;4.40;;;24.70;99.80;;;;;;5023165;28;20886;-36
2022/06/19 13:07:12;;;;;;;10.77;4.10;;;24.70;99.90;;;;;;5027801;28;20758;-36
2022/06/19 13:10:02;;;;;;;6.70;3.80;;;24.60;99.90;;;;;;5022365;28;20440;-37
2022/06/19 13:12:37;;;;;;;10.70;4.27;;;24.70;99.90;;;;;;5022559;28;20449;-36
2022/06/19 13:15:26;;;;;;;9.83;4.53;;;24.50;99.80;;;;;;5024217;28;20887;-37
2022/06/19 13:18:08;;;;;;;9.90;3.80;;;24.60;99.40;;;;;;5029533;28;20475;-36
2022/06/19 13:20:48;;;;;;;10.97;4.13;;;24.50;99.80;;;;;;5027593;28;20807;-36
2022/06/19 13:23:39;;;;;;;10.30;4.10;;;24.70;99.90;;;;;;5025812;28;20405;-36
2022/06/19 13:26:08;;;;;;;8.77;4.23;;;24.70;99.90;;;;;;5029725;28;20440;-37